Northern Expedition — CFN5364 — position and weather

sailwx.info

Track history (hours):
 
Tides and Currents Weather Stations Pressure Air Temp Water Temp Dewpoint Dewpoint Depression Visibility Wind Speed Wind Dir Waves Ship Positions

Northern Expedition

Last reported at 2015-Feb-25 11:15 UTC. Time now 2015-Feb-27 13:11 UTC.
Position N 54°18' W 130°21'.

Length 151 m; draft 5 m.

Type: Ship. MMSI: 316014054.

Date/timePositionNaut miles runAvg speedWind from/ knotsBaromVisibWave heightAir tempDewpointWater temp
2015-Feb-25 11:15N 54°18' W 130°21'0 0.0
2015-Feb-25 10:33N 54°18' W 130°21'0 0.0
2015-Feb-25 09:33N 54°18' W 130°21'0 0.0
2015-Feb-25 08:33N 54°18' W 130°21'0 0.0
2015-Feb-25 07:33N 54°18' W 130°21'0 0.0
2015-Feb-25 06:33N 54°18' W 130°21'0 0.0
2015-Feb-25 05:33N 54°18' W 130°21'0 0.0
2015-Feb-25 04:33N 54°18' W 130°21'0 0.0
2015-Feb-25 03:33N 54°18' W 130°21'0 0.0
2015-Feb-25 02:33N 54°18' W 130°21'0 0.0
2015-Feb-25 01:33N 54°18' W 130°21'0 0.0
2015-Feb-25 00:33N 54°18' W 130°21'1211.9
2015-Feb-24 23:33N 54°07' W 130°28'1712.8
2015-Feb-24 22:13N 53°57' W 130°53'5 0.1
2015-Feb-23 09:23N 53°54' W 130°59'1010.8
2015-Feb-23 08:30N 53°60' W 130°47'8 8.6
2015-Feb-23 07:32N 54°03' W 130°34'1110.9
2015-Feb-23 06:33N 54°11' W 130°21'7 6.9
2015-Feb-23 05:33N 54°18' W 130°21'0 0.0
2015-Feb-23 04:33N 54°18' W 130°21'0 0.0
2015-Feb-23 03:33N 54°18' W 130°21'0 0.0
2015-Feb-23 02:33N 54°18' W 130°21'0 0.0
2015-Feb-23 01:33N 54°18' W 130°21'0 0.0
2015-Feb-23 00:33N 54°18' W 130°21'0 0.0
2015-Feb-22 23:33N 54°18' W 130°21'1211.7
2015-Feb-22 22:33N 54°06' W 130°18'17810.5
2015-Feb-22 05:33N 51°32' W 127°52'1515.0
2015-Feb-22 04:33N 51°17' W 127°52'1515.4
2015-Feb-22 03:33N 51°02' W 127°47'1515.3
2015-Feb-22 02:33N 50°51' W 127°30'5 0.5
2015-Feb-21 16:28N 50°46' W 127°27'1213.1
2015-Feb-21 15:34N 50°55' W 127°39'1414.1
2015-Feb-21 14:32N 51°07' W 127°50'1613.6
2015-Feb-21 13:21N 51°24' W 127°51'18310.6
2015-Feb-20 20:07N 54°05' W 130°17'813.6
2015-Feb-20 19:33N 54°12' W 130°21'6 6.1
2015-Feb-20 18:33N 54°18' W 130°21'0 0.0
2015-Feb-20 17:33N 54°18' W 130°21'0 0.0
2015-Feb-20 16:33N 54°18' W 130°21'0 0.0
2015-Feb-20 15:33N 54°18' W 130°21'3 2.8
2015-Feb-20 14:33N 54°15' W 130°21'8 8.1
2015-Feb-20 13:33N 54°08' W 130°27'9 9.3
2015-Feb-20 12:33N 54°04' W 130°41'2 0.1
2015-Feb-19 19:28N 54°03' W 130°37'1314.2
2015-Feb-19 18:33N 54°11' W 130°21'7 6.4
2015-Feb-19 17:33N 54°18' W 130°21'0 0.0
2015-Feb-19 16:33N 54°18' W 130°21'0 0.0
2015-Feb-19 15:33N 54°18' W 130°21'0 0.0
2015-Feb-19 14:33N 54°18' W 130°21'0 0.0
2015-Feb-19 13:33N 54°18' W 130°21'0 0.0
2015-Feb-19 12:33N 54°18' W 130°21'0 0.0
2015-Feb-19 11:33N 54°18' W 130°21'0 0.0
2015-Feb-19 10:33N 54°18' W 130°21'0 0.0
2015-Feb-19 09:34N 54°18' W 130°21'0 0.0
2015-Feb-19 08:33N 54°18' W 130°21'0 0.0
2015-Feb-19 07:33N 54°18' W 130°21'0 0.0
2015-Feb-19 06:33N 54°18' W 130°21'0 0.0
2015-Feb-19 05:33N 54°18' W 130°21'0 0.0
2015-Feb-19 04:33N 54°18' W 130°21'0 0.0
2015-Feb-19 03:33N 54°18' W 130°21'0 0.0
2015-Feb-19 02:33N 54°18' W 130°21'0 0.0
2015-Feb-19 01:33N 54°18' W 130°21'0 0.0
2015-Feb-19 00:33N 54°18' W 130°21'0 0.0
2015-Feb-18 23:33N 54°18' W 130°21'0 0.0
2015-Feb-18 22:33N 54°18' W 130°21'0 0.0
2015-Feb-18 21:33N 54°18' W 130°21'0 0.0
2015-Feb-18 20:33N 54°18' W 130°21'0 0.0
2015-Feb-18 19:33N 54°18' W 130°21'0 0.0
2015-Feb-18 18:33N 54°18' W 130°21'0 0.0
2015-Feb-18 17:33N 54°18' W 130°21'0 0.0
2015-Feb-18 16:33N 54°18' W 130°21'0 0.0
2015-Feb-18 15:33N 54°18' W 130°21'0 0.0
2015-Feb-18 14:33N 54°18' W 130°21'0 0.0
2015-Feb-18 13:33N 54°18' W 130°21'0 0.0
2015-Feb-18 12:33N 54°18' W 130°21'0 0.0
2015-Feb-18 11:33N 54°18' W 130°21'0 0.0
2015-Feb-18 10:33N 54°18' W 130°21'0 0.0
2015-Feb-18 09:33N 54°18' W 130°21'0 0.0
2015-Feb-18 08:33N 54°18' W 130°21'0 0.0
2015-Feb-18 07:33N 54°18' W 130°21'5 5.3
2015-Feb-18 06:33N 54°13' W 130°21'19414.6
2015-Feb-17 17:15N 51°21' W 127°52'1318.0
2015-Feb-17 16:33N 51°08' W 127°50'1818.0
2015-Feb-17 15:33N 50°53' W 127°35'1010.3
2015-Feb-17 14:33N 50°44' W 127°28'0 0.0
2015-Feb-17 13:33N 50°44' W 127°28'0 0.0
2015-Feb-17 12:33N 50°44' W 127°28'0 0.0
2015-Feb-17 11:33N 50°44' W 127°28'0 0.0
2015-Feb-17 10:33N 50°44' W 127°28'0 0.0
2015-Feb-17 09:33N 50°44' W 127°28'0 0.0
2015-Feb-17 08:33N 50°44' W 127°28'0 0.0
2015-Feb-17 07:33N 50°44' W 127°28'3 3.0
2015-Feb-17 06:33N 50°47' W 127°27'1818.2
2015-Feb-17 05:33N 51°00' W 127°46'2618.8
2015-Feb-17 04:11N 51°26' W 127°51'18112.9
2015-Feb-16 14:08N 54°04' W 130°16'1118.7
2015-Feb-16 13:33N 54°15' W 130°21'3 3.4
2015-Feb-16 12:33N 54°18' W 130°21'0 0.0
2015-Feb-16 11:33N 54°18' W 130°21'0 0.0
2015-Feb-16 10:33N 54°18' W 130°21'0 0.0
2015-Feb-16 09:33N 54°18' W 130°21'1413.7
2015-Feb-16 08:33N 54°05' W 130°31'11 1.0
2015-Feb-15 21:09N 53°59' W 130°47'915.2
2015-Feb-15 20:33N 54°04' W 130°34'1616.1
2015-Feb-15 19:33N 54°18' W 130°22'0 0.2
2015-Feb-15 18:33N 54°18' W 130°21'0 0.0
2015-Feb-15 17:33N 54°18' W 130°21'0 0.0
2015-Feb-15 16:33N 54°18' W 130°21'0 0.0
2015-Feb-15 15:33N 54°18' W 130°21'1111.6
2015-Feb-15 14:33N 54°07' W 130°19'  
Track history (hours):
 
Tides and Currents Weather Stations Pressure Air Temp Water Temp Dewpoint Dewpoint Depression Visibility Wind Speed Wind Dir Waves Ship Positions

Northern Expedition

Last reported at 2015-Feb-25 11:15 UTC. Time now 2015-Feb-27 13:11 UTC.
Position N 54°18' W 130°21'.

Length 151 m; draft 5 m.

Type: Ship. MMSI: 316014054.

Date/timePositionNaut miles runAvg speedWind from/ knotsBaromVisibWave heightAir tempDewpointWater temp
2015-Feb-25 11:15N 54°18' W 130°21'0 0.0
2015-Feb-25 10:33N 54°18' W 130°21'0 0.0
2015-Feb-25 09:33N 54°18' W 130°21'0 0.0
2015-Feb-25 08:33N 54°18' W 130°21'0 0.0
2015-Feb-25 07:33N 54°18' W 130°21'0 0.0
2015-Feb-25 06:33N 54°18' W 130°21'0 0.0
2015-Feb-25 05:33N 54°18' W 130°21'0 0.0
2015-Feb-25 04:33N 54°18' W 130°21'0 0.0
2015-Feb-25 03:33N 54°18' W 130°21'0 0.0
2015-Feb-25 02:33N 54°18' W 130°21'0 0.0
2015-Feb-25 01:33N 54°18' W 130°21'0 0.0
2015-Feb-25 00:33N 54°18' W 130°21'1211.9
2015-Feb-24 23:33N 54°07' W 130°28'1712.8
2015-Feb-24 22:13N 53°57' W 130°53'5 0.1
2015-Feb-23 09:23N 53°54' W 130°59'1010.8
2015-Feb-23 08:30N 53°60' W 130°47'8 8.6
2015-Feb-23 07:32N 54°03' W 130°34'1110.9
2015-Feb-23 06:33N 54°11' W 130°21'7 6.9
2015-Feb-23 05:33N 54°18' W 130°21'0 0.0
2015-Feb-23 04:33N 54°18' W 130°21'0 0.0
2015-Feb-23 03:33N 54°18' W 130°21'0 0.0
2015-Feb-23 02:33N 54°18' W 130°21'0 0.0
2015-Feb-23 01:33N 54°18' W 130°21'0 0.0
2015-Feb-23 00:33N 54°18' W 130°21'0 0.0
2015-Feb-22 23:33N 54°18' W 130°21'1211.7
2015-Feb-22 22:33N 54°06' W 130°18'17810.5
2015-Feb-22 05:33N 51°32' W 127°52'1515.0
2015-Feb-22 04:33N 51°17' W 127°52'1515.4
2015-Feb-22 03:33N 51°02' W 127°47'1515.3
2015-Feb-22 02:33N 50°51' W 127°30'5 0.5
2015-Feb-21 16:28N 50°46' W 127°27'1213.1
2015-Feb-21 15:34N 50°55' W 127°39'1414.1
2015-Feb-21 14:32N 51°07' W 127°50'1613.6
2015-Feb-21 13:21N 51°24' W 127°51'18310.6
2015-Feb-20 20:07N 54°05' W 130°17'813.6
2015-Feb-20 19:33N 54°12' W 130°21'6 6.1
2015-Feb-20 18:33N 54°18' W 130°21'0 0.0
2015-Feb-20 17:33N 54°18' W 130°21'0 0.0
2015-Feb-20 16:33N 54°18' W 130°21'0 0.0
2015-Feb-20 15:33N 54°18' W 130°21'3 2.8
2015-Feb-20 14:33N 54°15' W 130°21'8 8.1
2015-Feb-20 13:33N 54°08' W 130°27'9 9.3
2015-Feb-20 12:33N 54°04' W 130°41'2 0.1
2015-Feb-19 19:28N 54°03' W 130°37'1314.2
2015-Feb-19 18:33N 54°11' W 130°21'7 6.4
2015-Feb-19 17:33N 54°18' W 130°21'0 0.0
2015-Feb-19 16:33N 54°18' W 130°21'0 0.0
2015-Feb-19 15:33N 54°18' W 130°21'0 0.0
2015-Feb-19 14:33N 54°18' W 130°21'0 0.0
2015-Feb-19 13:33N 54°18' W 130°21'0 0.0
2015-Feb-19 12:33N 54°18' W 130°21'0 0.0
2015-Feb-19 11:33N 54°18' W 130°21'0 0.0
2015-Feb-19 10:33N 54°18' W 130°21'0 0.0
2015-Feb-19 09:34N 54°18' W 130°21'0 0.0
2015-Feb-19 08:33N 54°18' W 130°21'0 0.0
2015-Feb-19 07:33N 54°18' W 130°21'0 0.0
2015-Feb-19 06:33N 54°18' W 130°21'0 0.0
2015-Feb-19 05:33N 54°18' W 130°21'0 0.0
2015-Feb-19 04:33N 54°18' W 130°21'0 0.0
2015-Feb-19 03:33N 54°18' W 130°21'0 0.0
2015-Feb-19 02:33N 54°18' W 130°21'0 0.0
2015-Feb-19 01:33N 54°18' W 130°21'0 0.0
2015-Feb-19 00:33N 54°18' W 130°21'0 0.0
2015-Feb-18 23:33N 54°18' W 130°21'0 0.0
2015-Feb-18 22:33N 54°18' W 130°21'0 0.0
2015-Feb-18 21:33N 54°18' W 130°21'0 0.0
2015-Feb-18 20:33N 54°18' W 130°21'0 0.0
2015-Feb-18 19:33N 54°18' W 130°21'0 0.0
2015-Feb-18 18:33N 54°18' W 130°21'0 0.0
2015-Feb-18 17:33N 54°18' W 130°21'0 0.0
2015-Feb-18 16:33N 54°18' W 130°21'0 0.0
2015-Feb-18 15:33N 54°18' W 130°21'0 0.0
2015-Feb-18 14:33N 54°18' W 130°21'0 0.0
2015-Feb-18 13:33N 54°18' W 130°21'0 0.0
2015-Feb-18 12:33N 54°18' W 130°21'0 0.0
2015-Feb-18 11:33N 54°18' W 130°21'0 0.0
2015-Feb-18 10:33N 54°18' W 130°21'0 0.0
2015-Feb-18 09:33N 54°18' W 130°21'0 0.0
2015-Feb-18 08:33N 54°18' W 130°21'0 0.0
2015-Feb-18 07:33N 54°18' W 130°21'5 5.3
2015-Feb-18 06:33N 54°13' W 130°21'19414.6
2015-Feb-17 17:15N 51°21' W 127°52'1318.0
2015-Feb-17 16:33N 51°08' W 127°50'1818.0
2015-Feb-17 15:33N 50°53' W 127°35'1010.3
2015-Feb-17 14:33N 50°44' W 127°28'0 0.0
2015-Feb-17 13:33N 50°44' W 127°28'0 0.0
2015-Feb-17 12:33N 50°44' W 127°28'0 0.0
2015-Feb-17 11:33N 50°44' W 127°28'0 0.0
2015-Feb-17 10:33N 50°44' W 127°28'0 0.0
2015-Feb-17 09:33N 50°44' W 127°28'0 0.0
2015-Feb-17 08:33N 50°44' W 127°28'0 0.0
2015-Feb-17 07:33N 50°44' W 127°28'3 3.0
2015-Feb-17 06:33N 50°47' W 127°27'1818.2
2015-Feb-17 05:33N 51°00' W 127°46'2618.8
2015-Feb-17 04:11N 51°26' W 127°51'18112.9
2015-Feb-16 14:08N 54°04' W 130°16'1118.7
2015-Feb-16 13:33N 54°15' W 130°21'3 3.4
2015-Feb-16 12:33N 54°18' W 130°21'0 0.0
2015-Feb-16 11:33N 54°18' W 130°21'0 0.0
2015-Feb-16 10:33N 54°18' W 130°21'0 0.0
2015-Feb-16 09:33N 54°18' W 130°21'1413.7
2015-Feb-16 08:33N 54°05' W 130°31'11 1.0
2015-Feb-15 21:09N 53°59' W 130°47'915.2
2015-Feb-15 20:33N 54°04' W 130°34'1616.1
2015-Feb-15 19:33N 54°18' W 130°22'0 0.2
2015-Feb-15 18:33N 54°18' W 130°21'0 0.0
2015-Feb-15 17:33N 54°18' W 130°21'0 0.0
2015-Feb-15 16:33N 54°18' W 130°21'0 0.0
2015-Feb-15 15:33N 54°18' W 130°21'1111.6
2015-Feb-15 14:33N 54°07' W 130°19'  

Dump ship's entire track history